Time;durP1;ratioP1;P1;durP2;ratioP2;P2;SDS_P1;SDS_P2;PMS_P1;PMS_P2;Temp;Humidity;BMP_temperature;BMP_pressure;BME280_temperature;BME280_humidity;BME280_pressure;Samples;Min_cycle;Max_cycle;Signal;HPM_P1;HPM_P2
2022/08/28 00:00:31;;;;;;;1.87;1.60;;;23.60;51.70;;;;;;4970349;28;20451;-53
2022/08/28 00:02:59;;;;;;;1.70;1.60;;;23.60;51.70;;;;;;4961395;28;20521;-52
2022/08/28 00:05:30;;;;;;;2.17;1.97;;;23.60;51.70;;;;;;4971613;28;20455;-52
2022/08/28 00:08:00;;;;;;;2.80;2.60;;;23.50;51.50;;;;;;4985031;28;20478;-52
2022/08/28 00:10:29;;;;;;;2.40;2.20;;;23.50;51.50;;;;;;4967343;28;20792;-52
2022/08/28 00:12:59;;;;;;;2.50;2.20;;;23.50;51.60;;;;;;4984242;28;20473;-51
2022/08/28 00:15:30;;;;;;;2.47;2.27;;;23.50;51.60;;;;;;4987176;28;20454;-52
2022/08/28 00:18:00;;;;;;;2.30;1.73;;;23.50;51.60;;;;;;4985688;28;20565;-52
2022/08/28 00:20:29;;;;;;;2.70;2.50;;;23.50;51.60;;;;;;4953561;28;20471;-51
2022/08/28 00:22:59;;;;;;;1.97;1.87;;;23.50;51.60;;;;;;4984590;28;20490;-52
2022/08/28 00:25:29;;;;;;;3.03;2.13;;;23.50;51.60;;;;;;4970643;28;20486;-52
2022/08/28 00:28:01;;;;;;;2.60;2.03;;;23.50;51.60;;;;;;4969275;28;20586;-52
2022/08/28 00:30:38;;;;;;;2.20;2.10;;;23.50;51.50;;;;;;4986257;28;20797;-52
2022/08/28 00:33:10;;;;;;;1.97;1.87;;;23.50;51.50;;;;;;4969504;28;20482;-52
2022/08/28 00:35:39;;;;;;;2.43;2.23;;;23.50;51.50;;;;;;4966527;28;20487;-52
2022/08/28 00:38:08;;;;;;;2.77;2.57;;;23.50;51.60;;;;;;4980525;28;21044;-52
2022/08/28 00:40:38;;;;;;;2.43;2.03;;;23.50;51.60;;;;;;4957518;28;20989;-52
2022/08/28 00:43:09;;;;;;;2.10;1.90;;;23.50;51.60;;;;;;4987549;28;20537;-52
2022/08/28 00:45:38;;;;;;;3.07;1.50;;;23.50;51.50;;;;;;4956440;28;20447;-52
2022/08/28 00:48:08;;;;;;;2.37;2.00;;;23.50;52.80;;;;;;4981435;28;20470;-52
2022/08/28 00:53:21;;;;;;;2.37;2.20;;;23.50;51.50;;;;;;4982200;28;20478;-52
2022/08/28 00:55:54;;;;;;;3.00;2.17;;;23.50;51.60;;;;;;4973754;28;20441;-52
2022/08/28 00:58:24;;;;;;;2.40;2.20;;;23.50;51.60;;;;;;4976072;28;20573;-52
2022/08/28 01:00:52;;;;;;;2.17;1.93;;;23.50;51.60;;;;;;4964014;28;20896;-52
2022/08/28 01:03:21;;;;;;;2.03;1.93;;;23.50;51.60;;;;;;4965098;28;20513;-51
2022/08/28 01:05:54;;;;;;;2.43;2.03;;;23.50;51.60;;;;;;4978788;28;20462;-52
2022/08/28 01:08:22;;;;;;;2.27;2.07;;;23.50;51.60;;;;;;4988563;28;20477;-53
2022/08/28 01:10:55;;;;;;;2.30;2.10;;;23.50;51.60;;;;;;4989333;28;20435;-52
2022/08/28 01:13:26;;;;;;;2.30;2.10;;;23.50;51.60;;;;;;4973118;28;20481;-51
2022/08/28 01:15:56;;;;;;;2.07;1.87;;;23.50;51.60;;;;;;4963978;28;20551;-51
2022/08/28 01:18:27;;;;;;;2.33;2.13;;;23.50;51.60;;;;;;4964025;28;20485;-52
2022/08/28 01:21:06;;;;;;;2.43;2.23;;;23.50;51.60;;;;;;4995301;28;20473;-52
2022/08/28 01:23:55;;;;;;;2.47;2.27;;;23.50;51.50;;;;;;4987593;28;20521;-53
2022/08/28 01:26:25;;;;;;;1.80;1.70;;;23.50;51.50;;;;;;4972748;28;20466;-52
2022/08/28 01:28:54;;;;;;;3.13;1.70;;;23.40;51.50;;;;;;4987369;28;20481;-52
2022/08/28 01:31:23;;;;;;;2.20;2.00;;;23.40;51.40;;;;;;4961009;28;20509;-52
2022/08/28 01:33:52;;;;;;;2.00;1.90;;;23.40;51.40;;;;;;4971489;28;20497;-52
2022/08/28 01:36:21;;;;;;;2.70;2.20;;;23.40;51.40;;;;;;4994522;28;20451;-52
2022/08/28 01:38:58;;;;;;;2.03;1.83;;;23.50;51.60;;;;;;4968291;28;20463;-53
2022/08/28 01:41:28;;;;;;;2.33;2.13;;;23.40;51.40;;;;;;4972486;28;20557;-53
2022/08/28 01:43:56;;;;;;;2.13;1.90;;;23.40;51.40;;;;;;4999273;23;20883;-72
2022/08/28 01:46:25;;;;;;;1.80;1.30;;;23.40;51.40;;;;;;4987928;28;20441;-71
2022/08/28 01:48:53;;;;;;;2.37;2.17;;;23.40;51.40;;;;;;5006187;28;20565;-72
2022/08/28 01:51:22;;;;;;;1.93;1.83;;;23.40;51.50;;;;;;4996062;28;20451;-71
2022/08/28 01:53:52;;;;;;;2.70;2.20;;;23.40;51.40;;;;;;4995606;28;20469;-71
2022/08/28 01:56:22;;;;;;;2.23;1.80;;;23.40;51.40;;;;;;4994281;28;20809;-71
2022/08/28 01:58:51;;;;;;;1.80;1.70;;;23.40;51.40;;;;;;5005674;28;20470;-71
2022/08/28 02:01:22;;;;;;;2.57;2.37;;;23.40;51.40;;;;;;5005592;28;20516;-71
2022/08/28 02:03:51;;;;;;;2.10;1.60;;;23.40;51.40;;;;;;4993031;28;20472;-71
2022/08/28 02:06:20;;;;;;;2.90;2.27;;;23.40;51.40;;;;;;5003326;28;21041;-71
2022/08/28 02:08:53;;;;;;;2.80;1.80;;;23.40;51.40;;;;;;5011509;28;21007;-71
2022/08/28 02:11:24;;;;;;;2.33;2.10;;;23.40;51.40;;;;;;4994065;28;20437;-72
2022/08/28 02:13:54;;;;;;;1.77;1.53;;;23.40;52.60;;;;;;5006743;28;21085;-72
2022/08/28 02:16:23;;;;;;;1.73;1.60;;;23.40;51.40;;;;;;5012340;28;20440;-72
2022/08/28 02:18:52;;;;;;;1.67;1.53;;;23.40;51.40;;;;;;5004078;28;20982;-72
2022/08/28 02:21:21;;;;;;;1.67;1.50;;;23.40;51.40;;;;;;5002115;28;20476;-72
2022/08/28 02:23:49;;;;;;;2.20;2.00;;;23.30;51.30;;;;;;4992165;28;20457;-72
2022/08/28 02:26:18;;;;;;;2.40;2.20;;;23.40;51.40;;;;;;5010216;28;20785;-71
2022/08/28 02:28:48;;;;;;;2.40;1.53;;;23.40;51.40;;;;;;5017335;28;20457;-72
2022/08/28 02:31:17;;;;;;;2.70;2.07;;;23.40;51.30;;;;;;4992214;28;20449;-71
2022/08/28 02:33:46;;;;;;;3.50;1.93;;;23.40;51.50;;;;;;5009555;28;20468;-71
2022/08/28 02:36:16;;;;;;;2.00;1.87;;;23.40;51.40;;;;;;5015060;28;20823;-72
2022/08/28 02:38:46;;;;;;;2.90;2.07;;;23.40;51.50;;;;;;5010805;28;20465;-72
2022/08/28 02:41:15;;;;;;;1.60;1.50;;;23.30;51.40;;;;;;5009961;28;20473;-72
2022/08/28 02:43:44;;;;;;;2.13;1.90;;;23.30;51.30;;;;;;5008914;28;20840;-72
2022/08/28 02:46:13;;;;;;;1.97;1.83;;;23.30;51.40;;;;;;5012293;28;20861;-72
2022/08/28 02:48:42;;;;;;;3.07;2.00;;;23.30;51.40;;;;;;5008667;28;20490;-71
2022/08/28 02:51:13;;;;;;;2.00;1.53;;;23.30;51.40;;;;;;5000890;28;20481;-72
2022/08/28 02:53:42;;;;;;;3.00;1.60;;;23.30;51.40;;;;;;5017715;28;20476;-72
2022/08/28 02:56:11;;;;;;;2.67;2.13;;;23.30;51.40;;;;;;5009319;28;20705;-71
2022/08/28 02:58:40;;;;;;;2.20;1.80;;;23.30;51.50;;;;;;5008739;28;20465;-72
2022/08/28 03:01:12;;;;;;;1.80;1.53;;;23.30;51.40;;;;;;5006955;28;20476;-73
2022/08/28 03:03:42;;;;;;;2.53;1.23;;;23.30;51.40;;;;;;5006186;28;20556;-72
2022/08/28 03:06:12;;;;;;;2.63;1.70;;;23.30;51.40;;;;;;5005646;28;20452;-72
2022/08/28 03:08:42;;;;;;;2.80;1.43;;;23.30;51.40;;;;;;5012873;28;20520;-72
2022/08/28 03:11:10;;;;;;;2.03;1.70;;;23.20;51.30;;;;;;4994533;28;20438;-72
2022/08/28 03:13:39;;;;;;;1.93;1.57;;;23.30;51.40;;;;;;5008453;28;20475;-72
2022/08/28 03:16:08;;;;;;;1.77;1.40;;;23.30;51.40;;;;;;4999781;28;21016;-71
2022/08/28 03:18:37;;;;;;;1.80;1.70;;;23.30;51.40;;;;;;5006578;28;20468;-72
2022/08/28 03:21:06;;;;;;;2.10;1.30;;;23.30;51.40;;;;;;5005421;28;20437;-72
2022/08/28 03:23:36;;;;;;;1.70;1.60;;;23.20;51.30;;;;;;5005828;28;20879;-71
2022/08/28 03:26:07;;;;;;;1.87;1.47;;;23.20;51.30;;;;;;5002400;28;20440;-71
2022/08/28 03:28:38;;;;;;;1.90;1.80;;;23.20;51.30;;;;;;5010621;28;20464;-72
2022/08/28 03:31:07;;;;;;;2.03;1.83;;;23.20;52.50;;;;;;5009061;28;20954;-72
2022/08/28 03:33:36;;;;;;;2.73;1.60;;;23.20;51.30;;;;;;5009937;28;20883;-71
2022/08/28 03:36:10;;;;;;;1.30;1.20;;;23.20;51.20;;;;;;5001684;28;20501;-72
2022/08/28 03:38:40;;;;;;;3.60;2.37;;;23.20;51.30;;;;;;5011378;28;20475;-72
2022/08/28 03:41:10;;;;;;;2.23;1.87;;;23.20;51.20;;;;;;5008999;28;20445;-72
2022/08/28 03:43:38;;;;;;;1.53;1.43;;;23.20;51.10;;;;;;5011674;28;20529;-71
2022/08/28 03:46:09;;;;;;;2.23;1.50;;;23.20;51.20;;;;;;5004150;28;20436;-72
2022/08/28 03:48:38;;;;;;;1.63;1.53;;;23.20;51.10;;;;;;5011331;28;20813;-72
2022/08/28 03:51:16;;;;;;;2.37;1.87;;;23.20;51.10;;;;;;4999858;28;20439;-72
2022/08/28 03:53:45;;;;;;;1.90;1.63;;;23.20;51.10;;;;;;5014240;28;20485;-71
2022/08/28 03:56:17;;;;;;;2.60;1.90;;;23.20;51.10;;;;;;5019921;28;20849;-72
2022/08/28 03:58:46;;;;;;;1.50;1.10;;;23.20;51.20;;;;;;5008520;28;20494;-72
2022/08/28 04:01:14;;;;;;;3.27;1.93;;;23.20;51.10;;;;;;5007494;28;20438;-71
2022/08/28 04:03:43;;;;;;;2.40;1.60;;;23.20;51.10;;;;;;5002792;28;20484;-72
2022/08/28 04:06:13;;;;;;;2.13;1.50;;;23.20;51.10;;;;;;4995212;28;20445;-72
2022/08/28 04:08:42;;;;;;;2.50;1.50;;;23.20;51.10;;;;;;4997971;28;20478;-72
2022/08/28 04:11:10;;;;;;;2.33;1.53;;;23.20;51.10;;;;;;5007880;28;20441;-72
2022/08/28 04:13:40;;;;;;;2.10;1.87;;;23.20;51.10;;;;;;5017307;28;20831;-72
2022/08/28 04:16:11;;;;;;;3.43;1.50;;;23.10;50.90;;;;;;5002985;28;20812;-72
2022/08/28 04:18:43;;;;;;;2.93;2.13;;;23.20;51.10;;;;;;5026035;28;20464;-72
2022/08/28 04:21:15;;;;;;;3.13;1.70;;;23.20;51.00;;;;;;5001114;28;20457;-72
2022/08/28 04:23:47;;;;;;;1.60;1.40;;;23.20;51.10;;;;;;5008158;28;20476;-72
2022/08/28 04:26:17;;;;;;;1.70;1.50;;;23.20;51.10;;;;;;5003638;28;20800;-71
2022/08/28 04:28:46;;;;;;;1.90;1.70;;;23.10;50.90;;;;;;5008176;28;21020;-72
2022/08/28 04:31:15;;;;;;;2.17;1.83;;;23.10;51.00;;;;;;5014684;28;20481;-71
2022/08/28 04:33:44;;;;;;;2.80;2.03;;;23.10;51.00;;;;;;5011386;28;20475;-72
2022/08/28 04:36:19;;;;;;;2.23;1.57;;;23.10;51.00;;;;;;5012659;28;20447;-72
2022/08/28 04:38:47;;;;;;;1.67;1.43;;;23.10;51.00;;;;;;5011841;28;20881;-72
2022/08/28 04:41:17;;;;;;;2.67;1.93;;;23.10;51.00;;;;;;5015795;28;20424;-71
2022/08/28 04:43:46;;;;;;;2.93;1.37;;;23.10;51.00;;;;;;5015281;28;20484;-72
2022/08/28 04:46:15;;;;;;;5.40;2.03;;;23.10;51.00;;;;;;5009653;28;21026;-71
2022/08/28 04:48:43;;;;;;;3.77;2.10;;;23.10;51.20;;;;;;4993210;28;20464;-72
2022/08/28 04:51:14;;;;;;;2.83;1.70;;;23.10;51.00;;;;;;5012779;28;20455;-72
2022/08/28 04:53:43;;;;;;;2.90;2.20;;;23.10;51.00;;;;;;5016649;28;20468;-72
2022/08/28 04:56:13;;;;;;;2.20;2.00;;;23.10;51.00;;;;;;5009449;28;20444;-72
2022/08/28 04:58:43;;;;;;;2.20;1.73;;;23.10;51.00;;;;;;5008413;28;20534;-71
2022/08/28 05:01:14;;;;;;;2.20;1.73;;;23.10;51.00;;;;;;5013647;28;20493;-72
2022/08/28 05:03:42;;;;;;;2.20;2.00;;;23.10;51.00;;;;;;5010951;28;21019;-71
2022/08/28 05:06:14;;;;;;;2.73;1.90;;;23.10;51.00;;;;;;5007167;28;20495;-72
2022/08/28 05:08:43;;;;;;;4.10;1.87;;;23.10;50.90;;;;;;5017336;28;20707;-72
2022/08/28 05:11:14;;;;;;;4.30;2.20;;;23.10;50.90;;;;;;5009546;28;20483;-72
2022/08/28 05:14:02;;;;;;;2.53;1.93;;;23.10;50.90;;;;;;5011743;28;20460;-72
2022/08/28 05:16:33;;;;;;;2.73;1.87;;;23.10;51.00;;;;;;5005493;28;20439;-71
2022/08/28 05:19:02;;;;;;;2.40;1.90;;;23.10;50.90;;;;;;5012516;28;20435;-71
2022/08/28 05:21:32;;;;;;;2.47;2.20;;;23.10;51.00;;;;;;5009353;28;20441;-72
2022/08/28 05:24:00;;;;;;;1.80;1.57;;;23.10;51.00;;;;;;5007783;28;20503;-72
2022/08/28 05:26:29;;;;;;;2.50;2.13;;;23.10;50.90;;;;;;5008983;28;20803;-72
2022/08/28 05:28:58;;;;;;;2.70;2.30;;;23.10;51.00;;;;;;5014356;28;20522;-72
2022/08/28 05:31:28;;;;;;;2.90;2.10;;;23.00;50.90;;;;;;5014189;28;20436;-72
2022/08/28 05:33:57;;;;;;;3.50;1.87;;;23.00;50.90;;;;;;4991730;28;20463;-71
2022/08/28 05:36:27;;;;;;;3.03;1.73;;;23.00;49.70;;;;;;5007417;28;20456;-71
2022/08/28 05:39:04;;;;;;;3.03;1.80;;;23.00;50.80;;;;;;5022525;28;20468;-72
2022/08/28 05:41:36;;;;;;;2.93;2.10;;;23.00;50.70;;;;;;5015265;28;20460;-72
2022/08/28 05:44:07;;;;;;;3.00;1.90;;;23.00;50.70;;;;;;4996928;28;20484;-72
2022/08/28 05:46:38;;;;;;;2.83;1.90;;;23.00;50.70;;;;;;4999444;28;20491;-71
2022/08/28 05:49:08;;;;;;;3.90;1.80;;;23.00;50.80;;;;;;5008868;28;20433;-72
2022/08/28 05:51:40;;;;;;;3.60;2.10;;;23.00;50.80;;;;;;4991041;28;20556;-71
2022/08/28 05:54:10;;;;;;;2.20;2.00;;;23.00;50.60;;;;;;4993701;28;20453;-71
2022/08/28 05:56:40;;;;;;;3.00;2.07;;;23.00;50.80;;;;;;5008579;28;20452;-71
2022/08/28 05:59:10;;;;;;;4.33;1.90;;;23.00;50.70;;;;;;5001484;28;20448;-72
2022/08/28 06:01:41;;;;;;;3.27;2.20;;;23.00;50.80;;;;;;5020850;28;20436;-71
2022/08/28 06:04:12;;;;;;;2.63;2.10;;;23.00;50.80;;;;;;5008617;28;20556;-71
2022/08/28 06:06:42;;;;;;;2.70;1.43;;;23.00;50.80;;;;;;5013071;28;20445;-71
2022/08/28 06:09:13;;;;;;;3.43;1.83;;;23.00;50.70;;;;;;5016979;28;20461;-71
2022/08/28 06:11:43;;;;;;;4.07;2.30;;;23.00;50.60;;;;;;4990305;28;20437;-72
2022/08/28 06:14:15;;;;;;;2.30;2.10;;;23.00;50.60;;;;;;5012175;28;20530;-72
2022/08/28 06:16:46;;;;;;;3.33;2.10;;;23.00;50.70;;;;;;5016769;28;20990;-71
2022/08/28 06:19:16;;;;;;;2.97;2.23;;;23.00;50.70;;;;;;5008142;28;20456;-71
2022/08/28 06:21:45;;;;;;;2.90;2.67;;;23.00;50.70;;;;;;5013038;28;20475;-71
2022/08/28 06:24:15;;;;;;;4.47;2.40;;;22.90;50.60;;;;;;5007212;28;20473;-71
2022/08/28 06:26:44;;;;;;;2.30;1.80;;;22.90;50.50;;;;;;5010137;28;20459;-72
2022/08/28 06:29:17;;;;;;;3.10;2.20;;;23.00;50.70;;;;;;5005577;28;20452;-72
2022/08/28 06:31:52;;;;;;;2.20;2.00;;;22.90;50.50;;;;;;5006605;28;20524;-71
2022/08/28 06:34:21;;;;;;;2.70;2.40;;;22.90;50.50;;;;;;5005195;28;20480;-72
2022/08/28 06:36:49;;;;;;;2.30;2.07;;;22.90;50.50;;;;;;5005995;28;20552;-72
2022/08/28 06:39:23;;;;;;;2.30;2.10;;;22.90;50.50;;;;;;5007217;28;20441;-71
2022/08/28 06:41:52;;;;;;;5.13;2.20;;;22.90;50.50;;;;;;5001696;28;20437;-72
2022/08/28 06:44:22;;;;;;;2.77;2.30;;;22.90;50.50;;;;;;4990098;28;20552;-71
2022/08/28 06:46:53;;;;;;;2.67;2.00;;;22.90;50.60;;;;;;5004486;28;20457;-72
2022/08/28 06:49:21;;;;;;;2.60;2.10;;;22.90;50.50;;;;;;5010973;28;20484;-71
2022/08/28 06:51:50;;;;;;;2.50;2.30;;;22.90;50.50;;;;;;5005634;28;20449;-71
2022/08/28 06:54:18;;;;;;;2.33;1.93;;;22.90;50.50;;;;;;5005898;28;20453;-71
2022/08/28 06:56:52;;;;;;;4.63;2.50;;;22.90;50.50;;;;;;5007022;28;20480;-71
2022/08/28 06:59:21;;;;;;;3.40;2.27;;;22.90;50.50;;;;;;5005924;28;20448;-71
2022/08/28 07:01:53;;;;;;;2.97;2.27;;;22.90;50.60;;;;;;5014679;28;20867;-72
2022/08/28 07:04:21;;;;;;;3.00;2.10;;;22.90;50.60;;;;;;5010543;28;20468;-71
2022/08/28 07:06:50;;;;;;;2.90;2.47;;;22.90;50.50;;;;;;5000052;28;20465;-71
2022/08/28 07:09:22;;;;;;;2.60;1.90;;;22.90;50.50;;;;;;5014286;28;20454;-72
2022/08/28 07:11:53;;;;;;;3.47;2.40;;;22.90;50.50;;;;;;5007875;28;20433;-71
2022/08/28 07:14:22;;;;;;;3.60;2.23;;;22.90;50.50;;;;;;5008802;28;20476;-71
2022/08/28 07:16:53;;;;;;;4.67;2.03;;;22.90;50.50;;;;;;5004314;28;20464;-71
2022/08/28 07:19:21;;;;;;;2.30;2.03;;;22.90;50.50;;;;;;5011016;28;20459;-72
2022/08/28 07:21:50;;;;;;;2.43;2.10;;;22.90;50.50;;;;;;5006698;28;20449;-71
2022/08/28 07:24:19;;;;;;;2.90;2.60;;;22.90;50.50;;;;;;4989200;28;20523;-72
2022/08/28 07:26:48;;;;;;;3.03;2.07;;;22.90;50.50;;;;;;5011403;28;20445;-73
2022/08/28 07:29:19;;;;;;;4.77;3.00;;;22.90;50.50;;;;;;4990119;28;20476;-72
2022/08/28 07:31:49;;;;;;;3.37;2.50;;;22.90;50.50;;;;;;5007988;28;20532;-72
2022/08/28 07:34:20;;;;;;;3.63;2.50;;;22.80;50.30;;;;;;5005559;28;20459;-73
2022/08/28 07:36:55;;;;;;;4.17;2.70;;;22.90;51.60;;;;;;5002372;28;20973;-72
2022/08/28 07:39:24;;;;;;;6.90;2.97;;;22.80;50.30;;;;;;5015685;28;20436;-72
2022/08/28 07:41:52;;;;;;;5.40;2.70;;;22.80;50.10;;;;;;5013948;28;20958;-72
2022/08/28 07:47:10;;;;;;;7.93;3.30;;;22.80;50.00;;;;;;4989082;28;20462;-71
2022/08/28 07:49:47;;;;;;;7.57;3.10;;;22.80;49.90;;;;;;4973903;28;20915;-73
2022/08/28 07:52:15;;;;;;;6.47;3.07;;;22.80;49.80;;;;;;5003190;28;20500;-72
2022/08/28 07:54:44;;;;;;;5.27;2.57;;;22.80;49.90;;;;;;4982574;28;20482;-72
2022/08/28 07:57:13;;;;;;;3.90;2.57;;;22.90;49.50;;;;;;4981103;28;20430;-72
2022/08/28 07:59:45;;;;;;;6.32;3.00;;;22.80;48.70;;;;;;4983308;28;20942;-71
2022/08/28 08:02:14;;;;;;;7.10;3.70;;;22.70;48.90;;;;;;4996099;28;20197;-72
2022/08/28 08:04:43;;;;;;;5.70;2.40;;;22.70;49.00;;;;;;4974900;28;20523;-72
2022/08/28 08:07:11;;;;;;;7.28;3.25;;;22.70;48.90;;;;;;4974523;28;20438;-72
2022/08/28 08:09:42;;;;;;;7.63;2.83;;;22.70;48.90;;;;;;4998036;28;20191;-72
2022/08/28 08:12:12;;;;;;;5.80;2.40;;;22.70;48.90;;;;;;4981129;28;20481;-71
2022/08/28 08:14:44;;;;;;;3.40;2.43;;;22.70;48.80;;;;;;4997289;28;21026;-71
2022/08/28 08:17:12;;;;;;;8.27;3.10;;;22.70;48.90;;;;;;4987212;28;20469;-73
2022/08/28 08:19:41;;;;;;;5.60;3.00;;;22.70;48.90;;;;;;4982960;28;20956;-73
2022/08/28 08:22:10;;;;;;;8.17;3.10;;;22.70;48.90;;;;;;4985092;28;20457;-72
2022/08/28 08:24:40;;;;;;;5.70;3.07;;;22.80;49.00;;;;;;4986099;28;20473;-73
2022/08/28 08:27:09;;;;;;;4.53;1.93;;;22.80;49.00;;;;;;4987361;28;20983;-72
2022/08/28 08:29:38;;;;;;;5.50;3.00;;;22.80;49.10;;;;;;4985232;28;20460;-71
2022/08/28 08:32:11;;;;;;;4.53;2.73;;;22.80;48.80;;;;;;4981643;28;20191;-72
2022/08/28 08:34:44;;;;;;;3.83;2.23;;;22.80;48.80;;;;;;4987126;28;20438;-73
2022/08/28 08:37:13;;;;;;;6.57;3.10;;;22.80;48.70;;;;;;4993312;28;20552;-72
2022/08/28 08:39:43;;;;;;;5.43;2.23;;;22.80;48.90;;;;;;4985501;28;20456;-72
2022/08/28 08:42:23;;;;;;;3.53;1.97;;;22.80;49.10;;;;;;4988462;28;20997;-72
2022/08/28 08:44:53;;;;;;;4.57;2.37;;;22.80;49.00;;;;;;4997326;28;20473;-72
2022/08/28 08:47:32;;;;;;;5.63;2.70;;;22.80;49.10;;;;;;4984438;28;20481;-72
2022/08/28 08:50:05;;;;;;;3.57;2.30;;;22.80;49.10;;;;;;4994982;28;20438;-72
2022/08/28 08:52:47;;;;;;;2.70;2.03;;;22.70;49.00;;;;;;4986727;28;20818;-71
2022/08/28 08:55:27;;;;;;;4.50;2.50;;;22.80;49.10;;;;;;4989051;28;20523;-73
2022/08/28 08:58:05;;;;;;;3.50;2.63;;;22.80;49.20;;;;;;4988539;28;20475;-73
2022/08/28 09:00:39;;;;;;;3.03;2.20;;;22.80;49.20;;;;;;4980336;28;20458;-73
2022/08/28 09:03:15;;;;;;;4.77;2.80;;;22.80;49.10;;;;;;4981671;28;20476;-72
2022/08/28 09:05:51;;;;;;;3.93;2.30;;;22.80;49.20;;;;;;4987132;28;20992;-72
2022/08/28 09:08:27;;;;;;;3.47;2.10;;;22.80;49.20;;;;;;4996795;28;20454;-71
2022/08/28 09:11:03;;;;;;;3.10;2.00;;;22.80;49.20;;;;;;4989243;28;20496;-71
2022/08/28 09:13:44;;;;;;;5.97;2.97;;;22.80;49.20;;;;;;4985777;28;20470;-73
2022/08/28 09:16:26;;;;;;;4.07;2.20;;;22.80;49.20;;;;;;4988294;28;20536;-73
2022/08/28 09:18:59;;;;;;;5.00;2.70;;;22.70;49.10;;;;;;5007205;28;20475;-72
2022/08/28 09:21:30;;;;;;;4.87;2.37;;;22.80;49.20;;;;;;4996445;28;20452;-72
2022/08/28 09:24:02;;;;;;;3.80;2.50;;;22.80;49.10;;;;;;4987841;28;20458;-72
2022/08/28 09:26:39;;;;;;;3.87;2.20;;;22.80;49.20;;;;;;4990602;28;20478;-71
2022/08/28 09:29:16;;;;;;;4.20;2.27;;;22.80;49.30;;;;;;4991927;28;20896;-71
2022/08/28 09:31:45;;;;;;;5.33;2.47;;;22.80;49.10;;;;;;4998972;28;20454;-72
2022/08/28 09:34:23;;;;;;;4.80;2.40;;;22.70;50.30;;;;;;5003622;28;20872;-72
2022/08/28 09:36:53;;;;;;;3.80;2.40;;;22.80;49.10;;;;;;4992555;28;20469;-72
2022/08/28 09:39:24;;;;;;;4.60;2.90;;;22.80;49.10;;;;;;4996044;28;20429;-71
2022/08/28 09:44:58;;;;;;;3.57;2.13;;;22.80;49.10;;;;;;4992835;28;20461;-72
2022/08/28 09:47:52;;;;;;;3.60;2.07;;;22.80;49.10;;;;;;5001173;28;20475;-71
2022/08/28 09:50:30;;;;;;;2.60;2.20;;;22.80;49.10;;;;;;4989441;28;20449;-73
2022/08/28 09:53:14;;;;;;;4.47;2.93;;;22.80;49.10;;;;;;4983362;28;20458;-72
2022/08/28 09:55:53;;;;;;;3.03;2.10;;;22.80;49.10;;;;;;5001329;28;20441;-72
2022/08/28 09:58:26;;;;;;;2.60;2.20;;;22.80;49.00;;;;;;5001824;28;20500;-72
2022/08/28 10:00:59;;;;;;;4.90;2.43;;;22.80;49.00;;;;;;5000621;28;20974;-73
2022/08/28 10:03:33;;;;;;;3.47;2.10;;;22.80;49.10;;;;;;5000417;28;20480;-72
2022/08/28 10:06:12;;;;;;;1.83;1.73;;;22.80;49.10;;;;;;4990556;28;20531;-71
2022/08/28 10:08:59;;;;;;;4.83;2.37;;;22.80;49.10;;;;;;5004998;28;20473;-72
2022/08/28 10:11:36;;;;;;;3.03;2.73;;;22.80;49.10;;;;;;5004205;28;20445;-72
2022/08/28 10:14:20;;;;;;;3.40;2.40;;;22.80;49.10;;;;;;4989073;28;20466;-73
2022/08/28 10:16:56;;;;;;;3.27;2.30;;;22.80;49.00;;;;;;4997578;28;20443;-72
2022/08/28 10:19:34;;;;;;;5.63;2.77;;;22.80;49.10;;;;;;4973154;28;20433;-72
2022/08/28 10:22:19;;;;;;;2.57;2.30;;;22.80;49.10;;;;;;4985060;28;20465;-72
2022/08/28 10:25:10;;;;;;;3.63;2.20;;;22.80;49.00;;;;;;4990381;28;20443;-73
2022/08/28 10:28:01;;;;;;;4.73;2.40;;;22.80;49.00;;;;;;4986416;28;20476;-72
2022/08/28 10:30:34;;;;;;;3.60;2.60;;;22.70;49.00;;;;;;4985506;28;20438;-73
2022/08/28 10:33:26;;;;;;;3.80;2.47;;;22.80;49.10;;;;;;4991268;28;20568;-72
2022/08/28 10:36:01;;;;;;;3.90;2.10;;;22.80;49.00;;;;;;4986704;28;20864;-72
2022/08/28 10:38:39;;;;;;;4.90;2.07;;;22.80;49.00;;;;;;4985222;28;20516;-72
2022/08/28 10:41:16;;;;;;;2.60;2.37;;;22.80;49.00;;;;;;4981834;28;20856;-72
2022/08/28 10:43:48;;;;;;;4.20;2.00;;;22.80;49.10;;;;;;4999731;28;20485;-72
2022/08/28 10:46:23;;;;;;;2.70;2.20;;;22.80;49.10;;;;;;4980641;28;20550;-72
2022/08/28 10:49:00;;;;;;;3.53;2.10;;;22.80;49.10;;;;;;4978440;28;20907;-73
2022/08/28 10:51:37;;;;;;;3.00;2.70;;;22.70;49.00;;;;;;4984067;28;20445;-73
2022/08/28 10:54:22;;;;;;;1.97;1.87;;;22.70;48.90;;;;;;4981451;28;20527;-72
2022/08/28 10:56:58;;;;;;;5.10;2.50;;;22.80;49.00;;;;;;4984800;28;20468;-72
2022/08/28 10:59:30;;;;;;;3.50;2.07;;;22.80;48.90;;;;;;4986989;28;20982;-72
2022/08/28 11:02:00;;;;;;;3.17;1.97;;;22.80;49.00;;;;;;4983273;28;20478;-73
2022/08/28 11:04:30;;;;;;;4.00;2.17;;;22.80;48.90;;;;;;4983312;28;20459;-73
2022/08/28 11:07:06;;;;;;;4.47;2.70;;;22.80;48.90;;;;;;4979326;28;20477;-72
2022/08/28 11:09:38;;;;;;;5.40;2.90;;;22.80;48.90;;;;;;4986472;28;20441;-71
2022/08/28 11:12:37;;;;;;;3.53;1.80;;;22.80;49.00;;;;;;4985221;28;20442;-73
2022/08/28 11:15:46;;;;;;;5.30;1.80;;;22.80;49.00;;;;;;4983138;28;20892;-73
2022/08/28 11:19:13;;;;;;;2.20;2.00;;;22.80;48.90;;;;;;4986432;28;20472;-71
2022/08/28 11:21:47;;;;;;;3.20;2.37;;;22.80;48.90;;;;;;4996998;28;20474;-72
2022/08/28 11:24:31;;;;;;;2.80;1.90;;;22.80;48.90;;;;;;4985052;28;20501;-72
2022/08/28 11:27:16;;;;;;;4.17;2.13;;;22.80;48.90;;;;;;4984273;28;20990;-72
2022/08/28 11:30:13;;;;;;;4.90;2.20;;;22.80;48.90;;;;;;4990198;28;20808;-72
2022/08/28 11:33:02;;;;;;;2.03;1.80;;;22.80;48.90;;;;;;4979452;28;20950;-71
2022/08/28 11:35:47;;;;;;;3.70;1.97;;;22.80;48.90;;;;;;4978577;28;20450;-72
2022/08/28 11:39:04;;;;;;;3.47;2.27;;;22.80;48.90;;;;;;4991716;28;20473;-71
2022/08/28 11:41:35;;;;;;;3.03;2.10;;;22.80;48.90;;;;;;4923704;29;20487;-72
2022/08/28 11:44:43;;;;;;;5.10;2.23;;;22.80;48.90;;;;;;4956576;28;20565;-72
2022/08/28 11:47:57;;;;;;;4.13;2.63;;;22.80;48.90;;;;;;4883817;29;20456;-73
2022/08/28 11:50:32;;;;;;;2.40;1.40;;;22.80;48.80;;;;;;4959405;28;20814;-72
2022/08/28 11:53:44;;;;;;;2.50;1.83;;;22.80;48.80;;;;;;4985676;28;20465;-72
2022/08/28 11:56:49;;;;;;;4.47;2.20;;;22.80;48.80;;;;;;4980898;28;20517;-73
2022/08/28 11:59:51;;;;;;;2.80;1.90;;;22.80;48.80;;;;;;4979011;28;20473;-72
2022/08/28 12:02:53;;;;;;;2.50;1.70;;;22.80;48.80;;;;;;4993265;28;20432;-72
2022/08/28 12:05:45;;;;;;;2.20;1.80;;;22.80;48.70;;;;;;4982247;28;20470;-72
2022/08/28 12:08:50;;;;;;;2.63;1.90;;;22.80;48.70;;;;;;4985620;28;20464;-72
2022/08/28 12:11:52;;;;;;;3.37;2.13;;;22.80;48.70;;;;;;4987800;28;20429;-72
2022/08/28 12:15:07;;;;;;;2.27;2.07;;;22.80;48.60;;;;;;4979429;28;20499;-72
2022/08/28 12:18:02;;;;;;;3.43;2.63;;;22.80;48.70;;;;;;5003219;28;21031;-72
2022/08/28 12:20:57;;;;;;;4.77;2.33;;;22.80;48.60;;;;;;4971350;28;20461;-72
2022/08/28 12:23:41;;;;;;;2.30;1.67;;;22.80;48.60;;;;;;4986596;28;20512;-73
2022/08/28 12:26:21;;;;;;;2.67;1.87;;;22.80;48.60;;;;;;4987625;28;20537;-72
2022/08/28 12:28:51;;;;;;;3.37;1.97;;;22.80;48.60;;;;;;4978091;28;20482;-73
2022/08/28 12:34:50;;;;;;;2.57;1.80;;;22.90;48.50;;;;;;4978714;28;20465;-73
2022/08/28 12:37:30;;;;;;;3.37;1.70;;;22.90;48.60;;;;;;4985894;28;20483;-71
2022/08/28 12:40:22;;;;;;;2.97;2.03;;;22.80;48.40;;;;;;4993869;28;20491;-71
2022/08/28 12:42:55;;;;;;;2.33;1.73;;;22.90;48.60;;;;;;4964461;28;20466;-73
2022/08/28 12:45:27;;;;;;;2.13;1.93;;;22.90;48.60;;;;;;4984926;28;20472;-71
2022/08/28 12:47:59;;;;;;;3.27;2.10;;;22.90;48.50;;;;;;4984853;28;20541;-72
2022/08/28 12:50:34;;;;;;;2.93;2.20;;;22.90;48.50;;;;;;4998184;28;20446;-72
2022/08/28 12:53:05;;;;;;;2.40;2.10;;;22.90;48.50;;;;;;4999144;28;20478;-72
2022/08/28 12:55:39;;;;;;;2.07;1.60;;;22.90;48.30;;;;;;4994375;28;20478;-72
2022/08/28 12:58:13;;;;;;;4.10;2.23;;;22.90;48.30;;;;;;4982999;28;20474;-72
2022/08/28 13:00:52;;;;;;;3.70;2.30;;;22.90;48.40;;;;;;4998092;28;20495;-72
2022/08/28 13:03:21;;;;;;;3.40;1.97;;;22.90;48.50;;;;;;4988791;28;20472;-68
2022/08/28 13:06:00;;;;;;;3.00;1.80;;;22.90;48.40;;;;;;4986128;28;20450;-66
2022/08/28 13:08:28;;;;;;;5.70;2.00;;;22.90;48.30;;;;;;4998151;28;20485;-68
2022/08/28 13:10:57;;;;;;;3.10;2.10;;;22.90;48.20;;;;;;4993558;28;21200;-68
2022/08/28 13:13:34;;;;;;;2.67;1.73;;;22.90;48.30;;;;;;4996782;28;20549;-67
2022/08/28 13:16:05;;;;;;;4.40;1.60;;;23.00;48.50;;;;;;5003451;28;20890;-68
2022/08/28 13:18:50;;;;;;;2.60;1.80;;;22.90;48.30;;;;;;4993464;28;20532;-69
2022/08/28 13:21:30;;;;;;;2.60;2.13;;;23.00;48.40;;;;;;4992726;28;20981;-67
2022/08/28 13:24:36;;;;;;;2.27;1.80;;;22.90;48.30;;;;;;4978649;28;20568;-68
2022/08/28 13:27:09;;;;;;;3.50;2.00;;;23.00;48.30;;;;;;4979066;28;20465;-68
2022/08/28 13:29:39;;;;;;;2.73;2.10;;;23.00;48.10;;;;;;4985037;28;20445;-68
2022/08/28 13:32:17;;;;;;;2.70;1.90;;;23.00;48.10;;;;;;4990091;28;20488;-68
2022/08/28 13:35:19;;;;;;;2.40;1.80;;;23.00;48.10;;;;;;4987441;28;20464;-68